Time;durP1;ratioP1;P1;durP2;ratioP2;P2;SDS_P1;SDS_P2;PMS_P1;PMS_P2;Temp;Humidity;BMP_temperature;BMP_pressure;BME280_temperature;BME280_humidity;BME280_pressure;Samples;Min_cycle;Max_cycle;Signal;HPM_P1;HPM_P2
2022/09/12 00:00:30;;;;;;;5.80;5.50;;;;;;;;;;4989453;28;20018;-72
2022/09/12 00:02:57;;;;;;;6.00;5.70;;;;;;;;;;4987815;28;20119;-72
2022/09/12 00:05:24;;;;;;;5.53;5.32;;;;;;;;;;4989472;28;20034;-72
2022/09/12 00:07:51;;;;;;;5.95;5.65;;;;;;;;;;4986502;28;20120;-71
2022/09/12 00:10:17;;;;;;;5.95;5.65;;;;;;;;;;4988402;28;20038;-71
2022/09/12 00:12:43;;;;;;;5.90;5.60;;;;;;;;;;4987607;28;20034;-72
2022/09/12 00:15:09;;;;;;;5.88;5.57;;;;;;;;;;4988311;28;20042;-72
2022/09/12 00:17:36;;;;;;;5.60;5.40;;;;;;;;;;4989254;28;20585;-72
2022/09/12 00:20:06;;;;;;;5.40;5.20;;;;;;;;;;4992685;28;20450;-72
2022/09/12 00:22:32;;;;;;;5.80;5.50;;;;;;;;;;4989986;28;20046;-72
2022/09/12 00:24:58;;;;;;;5.80;5.50;;;;;;;;;;4987476;28;20038;-72
2022/09/12 00:27:23;;;;;;;6.10;5.80;;;;;;;;;;4988705;28;20045;-72
2022/09/12 00:29:49;;;;;;;6.68;6.28;;;;;;;;;;4986966;28;20046;-72
2022/09/12 00:32:15;;;;;;;5.85;5.55;;;;;;;;;;4988413;28;20125;-72
2022/09/12 00:34:40;;;;;;;5.97;5.68;;;;;;;;;;4989522;28;20030;-71
2022/09/12 00:37:06;;;;;;;6.10;5.80;;;;;;;;;;4989569;28;20486;-72
2022/09/12 00:39:32;;;;;;;5.85;5.55;;;;;;;;;;4988594;28;20042;-72
2022/09/12 00:41:57;;;;;;;6.10;5.80;;;;;;;;;;4991996;28;20069;-72
2022/09/12 00:44:23;;;;;;;5.90;5.60;;;;;;;;;;4989040;28;20108;-71
2022/09/12 00:47:02;;;;;;;5.55;5.35;;;;;;;;;;4990732;28;20177;-72
2022/09/12 00:49:59;;;;;;;6.07;5.78;;;;;;;;;;4984953;28;20040;-72
2022/09/12 00:52:43;;;;;;;6.10;5.80;;;;;;;;;;4991002;28;20034;-72
2022/09/12 00:55:29;;;;;;;6.10;5.80;;;;;;;;;;4989504;28;20031;-71
2022/09/12 00:58:00;;;;;;;6.10;5.80;;;;;;;;;;4987967;28;20126;-72
2022/09/12 01:00:27;;;;;;;5.90;5.60;;;;;;;;;;4989965;28;20037;-72
2022/09/12 01:02:57;;;;;;;6.10;5.80;;;;;;;;;;4989493;28;20066;-72
2022/09/12 01:05:24;;;;;;;5.82;5.53;;;;;;;;;;4990897;28;20493;-72
2022/09/12 01:07:51;;;;;;;5.45;5.25;;;;;;;;;;4988009;28;20030;-72
2022/09/12 01:10:18;;;;;;;5.93;5.63;;;;;;;;;;4988118;28;20163;-72
2022/09/12 01:12:44;;;;;;;5.88;5.57;;;;;;;;;;4989583;28;20477;-71
2022/09/12 01:15:10;;;;;;;5.80;5.50;;;;;;;;;;4986324;28;20738;-72
2022/09/12 01:17:58;;;;;;;5.78;5.47;;;;;;;;;;5019057;28;20045;-72
2022/09/12 01:20:56;;;;;;;5.60;5.40;;;;;;;;;;4987329;28;20035;-72
2022/09/12 01:23:59;;;;;;;6.10;5.80;;;;;;;;;;4977755;28;20100;-71
2022/09/12 01:26:41;;;;;;;6.00;5.70;;;;;;;;;;4993731;28;20038;-71
2022/09/12 01:29:29;;;;;;;6.07;5.78;;;;;;;;;;4992477;28;20406;-71
2022/09/12 01:32:28;;;;;;;6.00;5.70;;;;;;;;;;4990784;28;20034;-71
2022/09/12 01:35:15;;;;;;;5.97;5.68;;;;;;;;;;5009277;28;20085;-72
2022/09/12 01:37:53;;;;;;;5.75;5.47;;;;;;;;;;4992347;28;20030;-71
2022/09/12 01:40:28;;;;;;;5.70;5.43;;;;;;;;;;4989314;28;20056;-72
2022/09/12 01:43:18;;;;;;;6.05;5.75;;;;;;;;;;4991905;28;20169;-72
2022/09/12 01:45:57;;;;;;;5.50;5.30;;;;;;;;;;4995454;28;20033;-72
2022/09/12 01:48:30;;;;;;;5.50;5.30;;;;;;;;;;4989980;28;20058;-71
2022/09/12 01:51:05;;;;;;;5.50;5.30;;;;;;;;;;4994954;28;20129;-72
2022/09/12 01:53:38;;;;;;;5.78;5.50;;;;;;;;;;4993586;28;20668;-72
2022/09/12 01:56:25;;;;;;;5.90;5.60;;;;;;;;;;4989374;28;20030;-71
2022/09/12 01:58:59;;;;;;;5.50;5.30;;;;;;;;;;4993555;28;20510;-72
2022/09/12 02:01:32;;;;;;;5.32;5.13;;;;;;;;;;4987604;28;20042;-72
2022/09/12 02:04:19;;;;;;;5.90;5.60;;;;;;;;;;4987542;28;20029;-72
2022/09/12 02:06:53;;;;;;;5.63;5.40;;;;;;;;;;4994608;28;20651;-72
2022/09/12 02:09:28;;;;;;;5.90;5.60;;;;;;;;;;4991448;28;20035;-72
2022/09/12 02:11:57;;;;;;;5.55;5.35;;;;;;;;;;4990154;28;20043;-72
2022/09/12 02:14:25;;;;;;;;;;;;;;;;;;4993604;28;20030;-72
2022/09/12 02:17:10;;;;;;;5.90;5.60;;;;;;;;;;4991212;28;19929;-72
2022/09/12 02:19:41;;;;;;;5.43;5.22;;;;;;;;;;4990747;28;20061;-71
2022/09/12 02:22:12;;;;;;;5.20;5.00;;;;;;;;;;4990744;28;20049;-71
2022/09/12 02:24:40;;;;;;;5.38;5.18;;;;;;;;;;4993527;28;20498;-71
2022/09/12 02:27:13;;;;;;;5.50;5.30;;;;;;;;;;4993051;28;20042;-71
2022/09/12 02:29:39;;;;;;;5.28;5.07;;;;;;;;;;4987811;28;20030;-72
2022/09/12 02:32:12;;;;;;;5.80;5.50;;;;;;;;;;4992769;28;20164;-72
2022/09/12 02:34:48;;;;;;;5.53;5.32;;;;;;;;;;4994023;28;20026;-71
2022/09/12 02:37:32;;;;;;;5.63;5.43;;;;;;;;;;4990702;28;20041;-71
2022/09/12 02:39:58;;;;;;;5.90;5.60;;;;;;;;;;4987237;28;20034;-72
2022/09/12 02:42:24;;;;;;;5.97;5.68;;;;;;;;;;4991560;28;20050;-71
2022/09/12 02:44:53;;;;;;;5.85;5.55;;;;;;;;;;4993681;28;20091;-71
2022/09/12 02:47:27;;;;;;;6.43;6.13;;;;;;;;;;4988666;28;20692;-71
2022/09/12 02:49:54;;;;;;;5.40;5.20;;;;;;;;;;4988957;28;20305;-71
2022/09/12 02:52:20;;;;;;;5.57;5.38;;;;;;;;;;5007867;28;20091;-71
2022/09/12 02:54:46;;;;;;;5.20;5.00;;;;;;;;;;4989867;28;20023;-71
2022/09/12 02:57:17;;;;;;;5.30;5.10;;;;;;;;;;4992389;28;20069;-71
2022/09/12 02:59:43;;;;;;;5.50;5.30;;;;;;;;;;4978575;28;20030;-71
2022/09/12 03:02:24;;;;;;;5.55;5.35;;;;;;;;;;4986536;28;20038;-72
2022/09/12 03:05:09;;;;;;;5.55;5.35;;;;;;;;;;4985401;28;20039;-71
2022/09/12 03:07:41;;;;;;;5.50;5.30;;;;;;;;;;4987915;28;20046;-71
2022/09/12 03:10:38;;;;;;;5.35;5.15;;;;;;;;;;4991996;28;20062;-71
2022/09/12 03:13:15;;;;;;;5.50;5.30;;;;;;;;;;4989002;28;20045;-71
2022/09/12 03:15:53;;;;;;;5.40;5.20;;;;;;;;;;4991745;28;20046;-71
2022/09/12 03:18:40;;;;;;;5.80;5.50;;;;;;;;;;4983697;28;20038;-71
2022/09/12 03:21:37;;;;;;;5.60;5.40;;;;;;;;;;4986496;28;20517;-71
2022/09/12 03:24:20;;;;;;;5.65;5.45;;;;;;;;;;4991047;28;20048;-71
2022/09/12 03:26:51;;;;;;;5.90;5.60;;;;;;;;;;4986861;28;20046;-71
2022/09/12 03:29:18;;;;;;;5.88;5.57;;;;;;;;;;4987526;28;20038;-71
2022/09/12 03:31:49;;;;;;;5.60;5.40;;;;;;;;;;4995133;28;20543;-71
2022/09/12 03:34:14;;;;;;;5.55;5.35;;;;;;;;;;4992817;28;20084;-71
2022/09/12 03:36:40;;;;;;;5.63;5.40;;;;;;;;;;4990244;28;20716;-71
2022/09/12 03:39:06;;;;;;;6.00;5.70;;;;;;;;;;4989026;28;20077;-71
2022/09/12 03:41:31;;;;;;;5.00;4.80;;;;;;;;;;4993014;28;20132;-70
2022/09/12 03:43:57;;;;;;;5.40;5.20;;;;;;;;;;4988594;28;20076;-71
2022/09/12 03:46:22;;;;;;;5.97;5.68;;;;;;;;;;4990906;28;20097;-71
2022/09/12 03:48:49;;;;;;;5.50;5.30;;;;;;;;;;4991521;28;20474;-70
2022/09/12 03:51:15;;;;;;;5.60;5.40;;;;;;;;;;4989690;28;20137;-71
2022/09/12 03:53:40;;;;;;;5.75;5.50;;;;;;;;;;4990170;28;20114;-71
2022/09/12 03:56:08;;;;;;;5.35;5.15;;;;;;;;;;4986261;28;20482;-72
2022/09/12 03:58:35;;;;;;;5.70;5.45;;;;;;;;;;4991370;28;20035;-71
2022/09/12 04:01:10;;;;;;;5.60;5.40;;;;;;;;;;4991693;28;20034;-71
2022/09/12 04:03:36;;;;;;;5.60;5.40;;;;;;;;;;4987839;28;20070;-71
2022/09/12 04:06:02;;;;;;;5.60;5.40;;;;;;;;;;4989595;28;20548;-72
2022/09/12 04:08:28;;;;;;;5.60;5.40;;;;;;;;;;4990088;28;20113;-71
2022/09/12 04:10:53;;;;;;;5.40;5.20;;;;;;;;;;4986392;28;20062;-71
2022/09/12 04:13:19;;;;;;;5.60;5.40;;;;;;;;;;4989111;28;20038;-71
2022/09/12 04:15:58;;;;;;;5.50;5.30;;;;;;;;;;4990360;28;20034;-71
2022/09/12 04:18:24;;;;;;;5.57;5.38;;;;;;;;;;4999853;28;20042;-72
2022/09/12 04:20:49;;;;;;;5.88;5.57;;;;;;;;;;4990320;28;20382;-71
2022/09/12 04:23:15;;;;;;;5.90;5.60;;;;;;;;;;4988900;28;20092;-72
2022/09/12 04:25:40;;;;;;;6.10;5.80;;;;;;;;;;4990009;28;20034;-72
2022/09/12 04:28:06;;;;;;;6.07;5.78;;;;;;;;;;4987699;28;20421;-71
2022/09/12 04:30:33;;;;;;;5.85;5.55;;;;;;;;;;4988569;28;20041;-71
2022/09/12 04:32:59;;;;;;;6.07;5.78;;;;;;;;;;4989123;28;20455;-71
2022/09/12 04:35:25;;;;;;;5.50;5.30;;;;;;;;;;4987465;28;20092;-71
2022/09/12 04:37:51;;;;;;;5.90;5.60;;;;;;;;;;4989015;28;20045;-72
2022/09/12 04:40:17;;;;;;;5.53;5.32;;;;;;;;;;4990943;28;20037;-72
2022/09/12 04:42:43;;;;;;;5.85;5.55;;;;;;;;;;4988256;28;20394;-72
2022/09/12 04:45:10;;;;;;;5.80;5.50;;;;;;;;;;4986963;28;20034;-72
2022/09/12 04:47:35;;;;;;;5.50;5.30;;;;;;;;;;4988022;28;20040;-72
2022/09/12 04:50:01;;;;;;;5.57;5.38;;;;;;;;;;4990403;28;20034;-72
2022/09/12 04:52:27;;;;;;;5.93;5.63;;;;;;;;;;4985829;28;20041;-72
2022/09/12 04:54:52;;;;;;;5.90;5.60;;;;;;;;;;4988426;28;20026;-71
2022/09/12 04:57:18;;;;;;;6.13;5.82;;;;;;;;;;4991763;28;20030;-72
2022/09/12 04:59:43;;;;;;;5.60;5.40;;;;;;;;;;4980353;28;20035;-73
2022/09/12 05:02:09;;;;;;;5.90;5.60;;;;;;;;;;4984107;28;20034;-71
2022/09/12 05:04:35;;;;;;;6.03;5.72;;;;;;;;;;4990626;28;20045;-72
2022/09/12 05:07:00;;;;;;;6.10;5.80;;;;;;;;;;4988769;28;20041;-73
2022/09/12 05:09:26;;;;;;;6.60;6.30;;;;;;;;;;4991029;28;20049;-71
2022/09/12 05:11:52;;;;;;;6.32;6.03;;;;;;;;;;4985205;28;20498;-72
2022/09/12 05:14:17;;;;;;;6.45;6.15;;;;;;;;;;4984484;28;20030;-71
2022/09/12 05:16:43;;;;;;;6.10;5.80;;;;;;;;;;4989296;28;20030;-72
2022/09/12 05:19:10;;;;;;;6.22;5.93;;;;;;;;;;4994569;28;20022;-73
2022/09/12 05:21:35;;;;;;;6.32;6.03;;;;;;;;;;4992160;28;20039;-71
2022/09/12 05:24:02;;;;;;;6.40;6.10;;;;;;;;;;4988255;28;20033;-71
2022/09/12 05:26:27;;;;;;;6.50;6.20;;;;;;;;;;4988268;28;20687;-71
2022/09/12 05:28:54;;;;;;;6.75;6.45;;;;;;;;;;4986810;28;20710;-71
2022/09/12 05:31:22;;;;;;;6.15;5.85;;;;;;;;;;4987474;28;20042;-71
2022/09/12 05:33:50;;;;;;;6.60;6.30;;;;;;;;;;4989848;28;20117;-71
2022/09/12 05:36:21;;;;;;;6.55;6.25;;;;;;;;;;4992187;28;20030;-71
2022/09/12 05:38:47;;;;;;;6.30;6.00;;;;;;;;;;4987344;28;20401;-72
2022/09/12 05:41:32;;;;;;;6.38;6.07;;;;;;;;;;4989713;28;20039;-72
2022/09/12 05:44:00;;;;;;;6.47;6.18;;;;;;;;;;4989397;28;20379;-71
2022/09/12 05:46:29;;;;;;;6.72;6.43;;;;;;;;;;4988367;28;20048;-71
2022/09/12 05:48:57;;;;;;;6.75;6.45;;;;;;;;;;4990353;28;20033;-71
2022/09/12 05:51:24;;;;;;;6.70;6.40;;;;;;;;;;4988494;28;20042;-71
2022/09/12 05:53:53;;;;;;;6.50;6.20;;;;;;;;;;4988074;28;20049;-72
2022/09/12 05:56:22;;;;;;;6.63;6.32;;;;;;;;;;4988612;28;20037;-71
2022/09/12 05:58:53;;;;;;;6.70;6.40;;;;;;;;;;4988098;28;20390;-71
2022/09/12 06:01:19;;;;;;;7.32;6.93;;;;;;;;;;4990306;28;20034;-71
2022/09/12 06:03:47;;;;;;;6.57;6.28;;;;;;;;;;4989311;28;20486;-71
2022/09/12 06:06:15;;;;;;;6.60;6.30;;;;;;;;;;4989899;28;20042;-71
2022/09/12 06:08:43;;;;;;;6.78;6.47;;;;;;;;;;4991555;28;20038;-72
2022/09/12 06:11:12;;;;;;;6.68;6.38;;;;;;;;;;4992369;28;20041;-74
2022/09/12 06:13:39;;;;;;;6.60;6.30;;;;;;;;;;4976056;28;20030;-72
2022/09/12 06:16:12;;;;;;;6.78;6.47;;;;;;;;;;4997234;28;20053;-72
2022/09/12 06:18:40;;;;;;;6.90;6.60;;;;;;;;;;4994456;28;20823;-73
2022/09/12 06:21:10;;;;;;;6.50;6.20;;;;;;;;;;4991471;28;20038;-73
2022/09/12 06:23:37;;;;;;;6.75;6.45;;;;;;;;;;4990814;28;20030;-72
2022/09/12 06:26:04;;;;;;;6.97;6.68;;;;;;;;;;4994668;28;20061;-73
2022/09/12 06:28:31;;;;;;;6.30;6.00;;;;;;;;;;4994050;28;20030;-73
2022/09/12 06:31:07;;;;;;;6.40;6.10;;;;;;;;;;5010505;28;20030;-73
2022/09/12 06:33:35;;;;;;;6.75;6.45;;;;;;;;;;4994664;28;20126;-72
2022/09/12 06:36:16;;;;;;;7.00;6.70;;;;;;;;;;4993497;28;20035;-72
2022/09/12 06:38:42;;;;;;;7.00;6.70;;;;;;;;;;4989041;28;20067;-72
2022/09/12 06:41:11;;;;;;;6.88;6.57;;;;;;;;;;4992309;28;20499;-72
2022/09/12 06:43:37;;;;;;;;;;;;;;;;;;4992308;28;20065;-72
2022/09/12 06:46:04;;;;;;;6.68;6.38;;;;;;;;;;4989859;28;19926;-72
2022/09/12 06:48:30;;;;;;;6.32;6.03;;;;;;;;;;4991488;28;20106;-71
2022/09/12 06:51:04;;;;;;;6.38;6.07;;;;;;;;;;4992896;28;20053;-72
2022/09/12 06:53:32;;;;;;;6.05;5.75;;;;;;;;;;4991124;28;20034;-72
2022/09/12 06:56:00;;;;;;;6.10;5.80;;;;;;;;;;4987330;28;20406;-72
2022/09/12 06:58:26;;;;;;;7.03;6.72;;;;;;;;;;4992207;28;20041;-72
2022/09/12 07:01:00;;;;;;;7.30;6.93;;;;;;;;;;4992560;28;20112;-71
2022/09/12 07:03:25;;;;;;;7.10;6.80;;;;;;;;;;4994892;28;20030;-72
2022/09/12 07:05:51;;;;;;;6.80;6.50;;;;;;;;;;4991904;28;20030;-72
2022/09/12 07:08:16;;;;;;;6.82;6.53;;;;;;;;;;4991401;28;20049;-71
2022/09/12 07:10:42;;;;;;;6.97;6.68;;;;;;;;;;4990509;28;20041;-72
2022/09/12 07:13:07;;;;;;;7.00;6.70;;;;;;;;;;4984229;28;20038;-71
2022/09/12 07:15:34;;;;;;;7.05;6.75;;;;;;;;;;4991261;28;20026;-71
2022/09/12 07:17:59;;;;;;;6.53;6.22;;;;;;;;;;4991501;28;20120;-72
2022/09/12 07:20:25;;;;;;;6.50;6.20;;;;;;;;;;4993508;28;20112;-72
2022/09/12 07:22:51;;;;;;;6.32;6.03;;;;;;;;;;4986135;28;20030;-71
2022/09/12 07:25:16;;;;;;;6.40;6.10;;;;;;;;;;4991222;28;20042;-70
2022/09/12 07:27:42;;;;;;;6.43;6.13;;;;;;;;;;4994024;28;20398;-71
2022/09/12 07:30:08;;;;;;;6.20;5.90;;;;;;;;;;4990118;28;20042;-71
2022/09/12 07:32:33;;;;;;;6.10;5.80;;;;;;;;;;4991434;28;20034;-71
2022/09/12 07:34:59;;;;;;;6.10;5.80;;;;;;;;;;4995551;28;20104;-71
2022/09/12 07:37:24;;;;;;;6.15;5.85;;;;;;;;;;4991149;28;20092;-71
2022/09/12 07:39:50;;;;;;;6.50;6.20;;;;;;;;;;4989275;28;20042;-71
2022/09/12 07:42:16;;;;;;;7.00;6.70;;;;;;;;;;4988754;28;20035;-71
2022/09/12 07:44:43;;;;;;;6.50;6.20;;;;;;;;;;4991165;28;20395;-71
2022/09/12 07:47:08;;;;;;;6.35;6.05;;;;;;;;;;4992423;28;20584;-71
2022/09/12 07:49:34;;;;;;;6.20;5.90;;;;;;;;;;4986880;28;20125;-71
2022/09/12 07:52:00;;;;;;;6.45;6.15;;;;;;;;;;4991692;28;20027;-71
2022/09/12 07:54:26;;;;;;;6.80;6.50;;;;;;;;;;4986509;28;20034;-71
2022/09/12 07:56:52;;;;;;;6.00;5.70;;;;;;;;;;4988935;28;20045;-71
2022/09/12 07:59:17;;;;;;;6.10;5.80;;;;;;;;;;4990477;28;20068;-71
2022/09/12 08:01:43;;;;;;;6.05;5.75;;;;;;;;;;4987040;28;20033;-71
2022/09/12 08:04:08;;;;;;;5.93;5.63;;;;;;;;;;4990083;28;20104;-71
2022/09/12 08:06:35;;;;;;;5.60;5.35;;;;;;;;;;4990975;28;20105;-72
2022/09/12 08:09:00;;;;;;;5.65;5.40;;;;;;;;;;4990878;28;20045;-71
2022/09/12 08:11:28;;;;;;;5.70;5.43;;;;;;;;;;4987986;28;20031;-71
2022/09/12 08:13:56;;;;;;;5.90;5.60;;;;;;;;;;4987953;28;20645;-71
2022/09/12 08:16:28;;;;;;;5.90;5.60;;;;;;;;;;4988645;28;20029;-72
2022/09/12 08:18:54;;;;;;;5.90;5.60;;;;;;;;;;4984789;28;20049;-72
2022/09/12 08:21:25;;;;;;;5.88;5.57;;;;;;;;;;4989145;28;20112;-72
2022/09/12 08:24:00;;;;;;;5.88;5.57;;;;;;;;;;4989076;28;20060;-72
2022/09/12 08:26:26;;;;;;;6.10;5.80;;;;;;;;;;4988432;28;20646;-72
2022/09/12 08:28:52;;;;;;;5.03;4.82;;;;;;;;;;4983149;28;20117;-72
2022/09/12 08:31:20;;;;;;;4.88;4.68;;;;;;;;;;4991048;28;20033;-72
2022/09/12 08:33:46;;;;;;;4.95;4.75;;;;;;;;;;4986862;28;20087;-72
2022/09/12 08:36:14;;;;;;;4.95;4.75;;;;;;;;;;4991286;28;20034;-72
2022/09/12 08:38:44;;;;;;;4.75;4.55;;;;;;;;;;4989818;28;20031;-73
2022/09/12 08:41:29;;;;;;;5.47;5.28;;;;;;;;;;4989257;28;20042;-72
2022/09/12 08:44:33;;;;;;;5.28;5.07;;;;;;;;;;4989573;28;20544;-72
2022/09/12 08:47:17;;;;;;;5.43;5.22;;;;;;;;;;4983302;28;20047;-72
2022/09/12 08:49:50;;;;;;;5.25;5.05;;;;;;;;;;4990580;28;20065;-72
2022/09/12 08:52:27;;;;;;;5.40;5.20;;;;;;;;;;4987202;28;20555;-73
2022/09/12 08:54:55;;;;;;;6.07;5.78;;;;;;;;;;4993795;28;20413;-74
2022/09/12 08:57:23;;;;;;;5.88;5.57;;;;;;;;;;5002927;28;20046;-73
2022/09/12 08:59:49;;;;;;;5.38;5.18;;;;;;;;;;4987354;28;20065;-73
2022/09/12 09:02:44;;;;;;;5.40;5.20;;;;;;;;;;4988426;28;20061;-73
2022/09/12 09:05:15;;;;;;;5.80;5.50;;;;;;;;;;4989158;28;20045;-73
2022/09/12 09:08:21;;;;;;;5.50;5.30;;;;;;;;;;4989238;28;20043;-73
2022/09/12 09:11:20;;;;;;;5.15;4.95;;;;;;;;;;4980260;28;20081;-73
2022/09/12 09:16:39;;;;;;;5.40;5.20;;;;;;;;;;4984113;28;20510;-73
2022/09/12 09:19:19;;;;;;;5.65;5.43;;;;;;;;;;4988108;28;20042;-74
2022/09/12 09:21:53;;;;;;;5.18;4.97;;;;;;;;;;4990268;28;20038;-73
2022/09/12 09:24:25;;;;;;;5.47;5.28;;;;;;;;;;4981958;28;20035;-73
2022/09/12 09:27:00;;;;;;;5.00;4.80;;;;;;;;;;4987395;28;20046;-73
2022/09/12 09:29:32;;;;;;;5.60;5.38;;;;;;;;;;4984774;28;20516;-74
2022/09/12 09:31:59;;;;;;;5.25;5.05;;;;;;;;;;5004515;28;20120;-73
2022/09/12 09:34:30;;;;;;;5.18;4.97;;;;;;;;;;4987163;28;20038;-73
2022/09/12 09:37:15;;;;;;;5.13;4.93;;;;;;;;;;4992503;28;20038;-72
2022/09/12 09:40:13;;;;;;;5.00;4.80;;;;;;;;;;4988409;28;20035;-73
2022/09/12 09:43:10;;;;;;;5.50;5.30;;;;;;;;;;4984860;28;20034;-73
2022/09/12 09:45:36;;;;;;;5.35;5.15;;;;;;;;;;4988752;28;20438;-72
2022/09/12 09:48:16;;;;;;;5.45;5.25;;;;;;;;;;4996598;28;20113;-73
2022/09/12 09:50:47;;;;;;;5.25;5.05;;;;;;;;;;4988655;28;20333;-73
2022/09/12 09:53:50;;;;;;;4.40;4.20;;;;;;;;;;5008156;28;20558;-73
2022/09/12 09:56:42;;;;;;;4.05;3.90;;;;;;;;;;4989957;28;20130;-74
2022/09/12 09:59:14;;;;;;;4.55;4.35;;;;;;;;;;4984661;28;20414;-74
2022/09/12 10:01:48;;;;;;;4.40;4.20;;;;;;;;;;4993582;28;20129;-73
2022/09/12 10:04:19;;;;;;;5.03;4.82;;;;;;;;;;4992120;28;20078;-73
2022/09/12 10:06:45;;;;;;;4.60;4.40;;;;;;;;;;4992296;28;20038;-73
2022/09/12 10:09:13;;;;;;;5.07;4.88;;;;;;;;;;4993807;28;20084;-73
2022/09/12 10:11:39;;;;;;;;;;;;;;;;;;4990745;28;20560;-72
2022/09/12 10:14:27;;;;;;;3.90;3.80;;;;;;;;;;4994189;28;19925;-71
2022/09/12 10:16:53;;;;;;;3.70;3.60;;;;;;;;;;4994079;28;20131;-73
2022/09/12 10:19:32;;;;;;;4.97;4.78;;;;;;;;;;4993469;28;20038;-73
2022/09/12 10:21:59;;;;;;;4.60;4.40;;;;;;;;;;4992867;28;20117;-73
2022/09/12 10:24:35;;;;;;;4.55;4.35;;;;;;;;;;4990931;28;20118;-72
2022/09/12 10:27:12;;;;;;;4.72;4.53;;;;;;;;;;4988361;28;20042;-72
2022/09/12 10:29:47;;;;;;;3.58;3.47;;;;;;;;;;4989773;28;20439;-72
2022/09/12 10:32:25;;;;;;;3.67;3.58;;;;;;;;;;4992992;28;20034;-73
2022/09/12 10:34:53;;;;;;;3.88;3.78;;;;;;;;;;4988649;28;20141;-72
2022/09/12 10:37:29;;;;;;;4.40;4.20;;;;;;;;;;4992052;28;20033;-72
2022/09/12 10:39:57;;;;;;;5.28;5.07;;;;;;;;;;4994702;28;20517;-72
2022/09/12 10:42:42;;;;;;;5.40;5.20;;;;;;;;;;4993485;28;20037;-72
2022/09/12 10:45:37;;;;;;;5.30;5.10;;;;;;;;;;4988195;28;20714;-72
2022/09/12 10:48:21;;;;;;;5.30;5.10;;;;;;;;;;4971919;28;20085;-72
2022/09/12 10:50:47;;;;;;;5.40;5.20;;;;;;;;;;4968862;28;20060;-73
2022/09/12 10:53:22;;;;;;;5.50;5.30;;;;;;;;;;4967697;28;20297;-73
2022/09/12 10:56:17;;;;;;;5.45;5.25;;;;;;;;;;4969285;28;20545;-73
2022/09/12 10:59:10;;;;;;;5.10;4.90;;;;;;;;;;4970153;28;20047;-73
2022/09/12 11:01:43;;;;;;;4.93;4.72;;;;;;;;;;4969993;28;20434;-73
2022/09/12 11:04:30;;;;;;;5.20;5.00;;;;;;;;;;4968308;28;20081;-73
2022/09/12 11:07:26;;;;;;;5.10;4.90;;;;;;;;;;4968176;28;20055;-73
2022/09/12 11:10:01;;;;;;;5.40;5.20;;;;;;;;;;4967263;28;20113;-73
2022/09/12 11:12:49;;;;;;;5.85;5.55;;;;;;;;;;4967763;28;20051;-73
2022/09/12 11:15:36;;;;;;;5.28;5.07;;;;;;;;;;4967040;28;20042;-74
2022/09/12 11:18:02;;;;;;;5.43;5.23;;;;;;;;;;4965574;28;20477;-74
2022/09/12 11:20:41;;;;;;;5.30;5.10;;;;;;;;;;4967025;28;20513;-73
2022/09/12 11:23:38;;;;;;;5.38;5.18;;;;;;;;;;4969046;28;20756;-73
2022/09/12 11:26:39;;;;;;;4.82;4.63;;;;;;;;;;4983052;28;20539;-73
2022/09/12 11:29:28;;;;;;;5.25;5.05;;;;;;;;;;4988363;28;20050;-73
2022/09/12 11:32:05;;;;;;;5.18;4.97;;;;;;;;;;4993179;28;20034;-73
2022/09/12 11:35:05;;;;;;;5.50;5.30;;;;;;;;;;4989567;28;20034;-73
2022/09/12 11:37:37;;;;;;;5.25;5.05;;;;;;;;;;4998577;28;20146;-73
2022/09/12 11:40:16;;;;;;;5.32;5.13;;;;;;;;;;4994505;28;20121;-73
2022/09/12 11:42:44;;;;;;;5.22;5.03;;;;;;;;;;4990869;28;20037;-73
2022/09/12 11:45:17;;;;;;;5.22;5.03;;;;;;;;;;4996889;28;20046;-73
2022/09/12 11:47:48;;;;;;;5.28;5.07;;;;;;;;;;4993911;28;20590;-73
2022/09/12 11:50:28;;;;;;;5.13;4.93;;;;;;;;;;4993584;28;20065;-73
2022/09/12 11:52:57;;;;;;;5.50;5.30;;;;;;;;;;4993570;28;20069;-73
2022/09/12 11:55:31;;;;;;;5.20;5.00;;;;;;;;;;4994785;28;20058;-72
2022/09/12 11:57:57;;;;;;;5.65;5.38;;;;;;;;;;4992418;28;20041;-73
2022/09/12 12:00:47;;;;;;;5.45;5.25;;;;;;;;;;5003604;28;20118;-73
2022/09/12 12:03:21;;;;;;;5.50;5.30;;;;;;;;;;4990321;28;20026;-72
2022/09/12 12:06:04;;;;;;;5.50;5.30;;;;;;;;;;4995180;28;20513;-73
2022/09/12 12:08:36;;;;;;;5.80;5.50;;;;;;;;;;4993340;28;20699;-73
2022/09/12 12:11:05;;;;;;;5.70;5.40;;;;;;;;;;4998673;23;20029;31
2022/09/12 12:13:33;;;;;;;5.97;5.68;;;;;;;;;;5014531;28;20048;-70
2022/09/12 12:16:07;;;;;;;5.57;5.38;;;;;;;;;;5008113;28;20030;-69
2022/09/12 12:18:36;;;;;;;5.93;5.63;;;;;;;;;;5020669;28;20037;-69
2022/09/12 12:21:32;;;;;;;5.88;5.57;;;;;;;;;;5011404;28;20494;-70
2022/09/12 12:24:03;;;;;;;5.97;5.68;;;;;;;;;;5008093;28;20115;-70
2022/09/12 12:26:47;;;;;;;6.00;5.70;;;;;;;;;;5002508;28;20030;-70
2022/09/12 12:29:15;;;;;;;6.00;5.70;;;;;;;;;;5001169;28;20033;-69
2022/09/12 12:32:03;;;;;;;6.32;6.03;;;;;;;;;;4998538;28;20034;-70
2022/09/12 12:34:43;;;;;;;6.47;6.18;;;;;;;;;;5002355;28;20080;-71
2022/09/12 12:37:17;;;;;;;5.85;5.55;;;;;;;;;;5002302;28;20038;-71
2022/09/12 12:39:44;;;;;;;6.40;6.10;;;;;;;;;;5007937;28;20041;-70
2022/09/12 12:42:33;;;;;;;6.38;6.07;;;;;;;;;;5008002;28;20049;-70
2022/09/12 12:45:07;;;;;;;6.25;5.95;;;;;;;;;;4996205;28;20033;-69
2022/09/12 12:47:36;;;;;;;6.20;5.90;;;;;;;;;;5002206;28;20044;-70
2022/09/12 12:50:11;;;;;;;6.30;6.00;;;;;;;;;;5001783;28;20076;-69
2022/09/12 12:52:57;;;;;;;6.60;6.30;;;;;;;;;;5002186;28;20040;-68
2022/09/12 12:55:26;;;;;;;6.50;6.20;;;;;;;;;;5000238;28;20025;-70
2022/09/12 12:57:54;;;;;;;6.20;5.90;;;;;;;;;;5003261;28;20392;-69
2022/09/12 13:00:19;;;;;;;6.50;6.20;;;;;;;;;;5001169;28;20536;-69
2022/09/12 13:02:58;;;;;;;6.20;5.90;;;;;;;;;;5004013;28;20038;-69
2022/09/12 13:05:28;;;;;;;6.40;6.10;;;;;;;;;;5000970;28;20144;-69
2022/09/12 13:07:57;;;;;;;6.38;6.07;;;;;;;;;;4999628;28;20038;-69
2022/09/12 13:10:27;;;;;;;6.28;5.97;;;;;;;;;;5001014;28;20033;-69
2022/09/12 13:12:56;;;;;;;6.40;6.10;;;;;;;;;;4999463;28;20061;-68
2022/09/12 13:15:28;;;;;;;;;;;;;;;;;;4998712;28;20022;-69
2022/09/12 13:18:00;;;;;;;6.30;6.00;;;;;;;;;;4998523;28;19917;-68
2022/09/12 13:20:30;;;;;;;6.40;6.10;;;;;;;;;;5003548;28;20087;-70
2022/09/12 13:22:56;;;;;;;6.32;6.03;;;;;;;;;;5003488;28;20041;-70
2022/09/12 13:25:31;;;;;;;6.05;5.75;;;;;;;;;;5008806;28;20037;-69
2022/09/12 13:28:01;;;;;;;6.40;6.10;;;;;;;;;;5011074;28;20034;-68
2022/09/12 13:30:30;;;;;;;6.43;6.13;;;;;;;;;;5004298;28;20088;-69
2022/09/12 13:32:57;;;;;;;;;;;;;;;;;;5017351;28;20092;-69
2022/09/12 13:35:28;;;;;;;6.57;6.28;;;;;;;;;;5001162;28;19913;-68
2022/09/12 13:38:07;;;;;;;6.30;6.00;;;;;;;;;;5003602;28;20042;-70
2022/09/12 13:40:46;;;;;;;6.68;6.38;;;;;;;;;;5004466;28;20492;-69
2022/09/12 13:43:20;;;;;;;6.40;6.10;;;;;;;;;;5001456;28;20041;-70
2022/09/12 13:45:46;;;;;;;6.30;6.00;;;;;;;;;;5005841;28;20042;-69
2022/09/12 13:48:17;;;;;;;6.50;6.20;;;;;;;;;;5004292;28;20408;-69
2022/09/12 13:50:51;;;;;;;6.82;6.50;;;;;;;;;;5000655;28;20180;-70
2022/09/12 13:53:21;;;;;;;6.40;6.10;;;;;;;;;;5003170;28;20034;-70
2022/09/12 13:55:50;;;;;;;6.60;6.30;;;;;;;;;;5002650;28;20045;-70
2022/09/12 13:58:33;;;;;;;6.50;6.20;;;;;;;;;;5004435;28;20045;-71
2022/09/12 14:01:09;;;;;;;6.25;5.95;;;;;;;;;;5003859;28;20468;-70
2022/09/12 14:06:26;;;;;;;6.47;6.18;;;;;;;;;;5001607;28;20496;-69
2022/09/12 14:08:55;;;;;;;6.53;6.22;;;;;;;;;;5019702;28;20149;-70
2022/09/12 14:11:29;;;;;;;6.60;6.30;;;;;;;;;;5001470;28;20045;-70
2022/09/12 14:13:56;;;;;;;6.18;5.88;;;;;;;;;;5006928;28;20036;-71
2022/09/12 14:16:26;;;;;;;6.50;6.20;;;;;;;;;;5003142;28;20022;-69
2022/09/12 14:18:51;;;;;;;6.32;6.03;;;;;;;;;;5001311;28;20053;-71
2022/09/12 14:21:32;;;;;;;6.32;6.03;;;;;;;;;;5002608;28;20184;-70
2022/09/12 14:23:59;;;;;;;6.60;6.30;;;;;;;;;;5001985;28;20040;-70
2022/09/12 14:26:27;;;;;;;6.75;6.45;;;;;;;;;;5003592;28;20034;-69
2022/09/12 14:28:52;;;;;;;6.70;6.40;;;;;;;;;;4996332;28;20125;-71
2022/09/12 14:31:21;;;;;;;6.88;6.57;;;;;;;;;;4986429;28;20100;-72
2022/09/12 14:33:48;;;;;;;6.47;6.18;;;;;;;;;;4996254;28;20033;-72
2022/09/12 14:36:24;;;;;;;6.72;6.43;;;;;;;;;;4996577;28;20703;-70
2022/09/12 14:38:58;;;;;;;6.57;6.28;;;;;;;;;;5002589;28;20059;-71
2022/09/12 14:41:30;;;;;;;6.40;6.10;;;;;;;;;;5000576;28;20034;-71
2022/09/12 14:44:03;;;;;;;6.75;6.45;;;;;;;;;;5001385;28;20187;-68
2022/09/12 14:46:31;;;;;;;6.30;6.00;;;;;;;;;;5001556;28;20025;-69
2022/09/12 14:49:19;;;;;;;6.55;6.25;;;;;;;;;;4997779;28;20060;-70
2022/09/12 14:51:55;;;;;;;6.63;6.32;;;;;;;;;;4993817;28;20096;-69
2022/09/12 14:54:28;;;;;;;6.90;6.60;;;;;;;;;;5004810;28;20046;-69
2022/09/12 14:56:59;;;;;;;6.70;6.40;;;;;;;;;;5008463;28;20038;-68
2022/09/12 14:59:29;;;;;;;6.72;6.43;;;;;;;;;;5003702;28;20026;-69
2022/09/12 15:02:15;;;;;;;6.70;6.40;;;;;;;;;;5020821;28;20057;-69
2022/09/12 15:04:49;;;;;;;6.88;6.57;;;;;;;;;;4989665;28;20078;-69
2022/09/12 15:07:22;;;;;;;7.05;6.75;;;;;;;;;;4998973;28;20038;-68
2022/09/12 15:09:48;;;;;;;6.60;6.30;;;;;;;;;;5003330;28;20052;-69
2022/09/12 15:12:13;;;;;;;6.38;6.07;;;;;;;;;;5007706;28;20112;-70
2022/09/12 15:14:39;;;;;;;6.90;6.60;;;;;;;;;;5000422;28;20916;-69
2022/09/12 15:17:05;;;;;;;6.80;6.50;;;;;;;;;;5013237;28;20094;-68
2022/09/12 15:19:30;;;;;;;6.82;6.53;;;;;;;;;;5001162;28;20037;-69
2022/09/12 15:21:56;;;;;;;6.60;6.30;;;;;;;;;;5017496;28;20067;-70